Flight Track Log - Related Links

Times and Time Zones

All times are in EDT time to prevent confusion due to time zone crossing. See the SWA2626 flight status page for this flight to view local times or setup timezone preferences in your user account.

Time Position Orientation Groundspeed Altitude Reporting Facility
EDT Latitude Longitude Course Direction KTS MPH feet Rate Location/Type
Sun 05:20:17 PM 42.9500 -71.4333 332° Northwest 155 178 1,100  Level KA90
Sun 05:21:02 PM 42.9797 -71.4553 332° Northwest 196 226 2,600 2,057 Climbing Boston Center
Sun 05:22:02 PM 43.0281 -71.4972 328° Northwest 191 220 4,700 2,400 Climbing Boston Center
Sun 05:23:02 PM 43.0703 -71.5647 311° West 223 257 7,400 3,100 Climbing Boston Center
Sun 05:24:02 PM 43.0875 -71.6697 283° West 253 291 10,900 2,850 Climbing Boston Center
Sun 05:25:02 PM 43.0903 -71.7778 272° West 298 343 13,100 3,100 Climbing Boston Center
Sun 05:26:02 PM 43.0953 -71.9142 273° West 335 386 17,100 3,500 Climbing Boston Center
Sun 05:27:02 PM 43.1000 -72.0306 273° West 335 386 20,100 2,750 Climbing Boston Center
Sun 05:28:02 PM 43.1044 -72.1669 273° West 352 405 22,600 1,750 Climbing Boston Center
Sun 05:29:02 PM 43.1172 -72.3150 277° West 358 412 23,600 1,600 Climbing Boston Center
Sun 05:30:02 PM 43.1214 -72.4514 272° West 363 418 25,800 2,000 Climbing Boston Center
Sun 05:31:02 PM 43.1256 -72.6022 272° West 375 432 27,600 1,700 Climbing Boston Center
Sun 05:32:02 PM 43.1211 -72.7531 268° West 386 444 29,200 1,800 Climbing Boston Center
Sun 05:33:02 PM 43.1228 -72.9036 271° West 396 456 31,200 1,650 Climbing Boston Center
Sun 05:34:02 PM 43.1283 -73.0431 273° West 410 472 32,500 1,550 Climbing Boston Center
Sun 05:35:02 PM 43.1314 -73.2167 271° West 410 472 34,300 1,600 Climbing Boston Center
Sun 05:36:02 PM 43.1322 -73.3647 270° West 410 472 35,700 1,300 Climbing Boston Center
Sun 05:37:02 PM 43.1372 -73.5156 273° West 397 457 36,900 900 Climbing Boston Center
Sun 05:38:02 PM 43.1400 -73.6692 271° West 402 463 37,500 550 Climbing Boston Center
Sun 05:39:02 PM 43.1422 -73.8344 271° West 418 481 38,000 250 Climbing Boston Center
Sun 05:40:02 PM 43.1442 -73.9939 271° West 424 488 38,000 -50 Level Boston Center
Sun 05:41:02 PM 43.1483 -74.1503 272° West 424 488 37,900  Descending Boston Center
Sun 05:42:02 PM 43.1500 -74.3069 271° West 419 482 38,000 50 Climbing Boston Center
Sun 05:43:02 PM 43.1517 -74.4464 271° West 419 482 38,000  Level Boston Center
Sun 05:44:02 PM 43.1550 -74.6089 272° West 419 482 38,000  Level Boston Center
Sun 05:45:02 PM 43.1561 -74.7711 271° West 419 482 38,000  Level Boston Center
Sun 05:46:02 PM 43.1589 -74.9336 271° West 419 482 38,000  Level Boston Center
Sun 05:47:02 PM 43.1572 -75.0928 269° West 419 482 38,000  Level Boston Center
Sun 05:48:02 PM 43.1597 -75.2553 271° West 424 488 38,000  Level Boston Center
Sun 05:49:02 PM 43.1597 -75.4175 270° West 424 488 38,000  Level Boston Center
Sun 05:50:02 PM 43.1617 -75.5772 271° West 424 488 38,000  Level Boston Center
Sun 05:51:02 PM 43.1636 -75.7367 271° West 419 482 38,000  Level Boston Center
Sun 05:52:02 PM 43.1628 -75.8989 270° West 419 482 38,000  Level Boston Center
Sun 05:53:02 PM 43.1622 -76.0556 270° West 419 482 38,000  Level Boston Center
Sun 05:54:34 PM 43.1314 -76.3042 260° West 422 486 38,000  Level Cleveland Center
Sun 05:55:34 PM 43.0864 -76.4439 246° West 401 461 38,000  Level Cleveland Center
Sun 05:56:34 PM 43.0433 -76.5803 247° West 406 467 38,000  Level Cleveland Center
Sun 05:57:34 PM 42.9981 -76.7167 246° West 401 461 38,000  Level Cleveland Center
Sun 05:58:34 PM 42.9525 -76.8556 246° West 401 461 38,000  Level Cleveland Center
Sun 05:59:34 PM 42.9089 -76.9944 247° West 401 461 38,000  Level Cleveland Center
Sun 06:00:34 PM 42.8650 -77.1300 246° West 401 461 38,000  Level Cleveland Center
Sun 06:01:34 PM 42.8189 -77.2656 245° Southwest 401 461 38,000  Level Cleveland Center
Sun 06:02:34 PM 42.7750 -77.4036 247° West 401 461 38,000  Level Cleveland Center
Sun 06:03:34 PM 42.7267 -77.5447 245° Southwest 406 467 38,000  Level Cleveland Center
Sun 06:04:34 PM 42.6864 -77.6767 247° West 401 461 38,000  Level Cleveland Center
Sun 06:05:34 PM 42.6375 -77.8089 243° Southwest 396 456 38,000  Level Cleveland Center
Sun 06:06:34 PM 42.5986 -77.9317 247° West 386 444 38,000  Level Cleveland Center
Sun 06:07:34 PM 42.5536 -78.0633 245° Southwest 386 444 38,000  Level Cleveland Center
Sun 06:08:34 PM 42.5086 -78.1975 246° West 386 444 38,000  Level Cleveland Center
Sun 06:09:34 PM 42.4633 -78.3344 246° West 386 444 38,000  Level Cleveland Center
Sun 06:10:34 PM 42.4158 -78.4711 245° Southwest 391 450 38,000  Level Cleveland Center
Sun 06:11:34 PM 42.3703 -78.6047 245° Southwest 391 450 38,000  Level Cleveland Center
Sun 06:12:34 PM 42.3225 -78.7381 244° Southwest 396 456 38,000  Level Cleveland Center
Sun 06:13:34 PM 42.2767 -78.8769 246° West 396 456 38,000  Level Cleveland Center
Sun 06:14:34 PM 42.2206 -79.0300 244° Southwest 408 470 38,000  Level Cleveland Center
Sun 06:15:34 PM 42.1764 -79.1656 246° West 408 470 38,000  Level Cleveland Center
Sun 06:16:34 PM 42.1425 -79.3092 252° West 403 464 38,000  Level Cleveland Center
Sun 06:17:34 PM 42.1214 -79.4606 259° West 403 464 38,000  Level Cleveland Center
Sun 06:18:34 PM 42.1039 -79.6119 261° West 409 471 38,000  Level Cleveland Center
Sun 06:19:34 PM 42.0864 -79.7633 261° West 409 471 38,000  Level Cleveland Center
Sun 06:20:34 PM 42.0686 -79.9119 261° West 409 471 38,000  Level Cleveland Center
Sun 06:21:34 PM 42.0506 -80.0519 260° West 414 476 38,000  Level Cleveland Center
Sun 06:22:34 PM 42.0281 -80.2142 259° West 409 471 38,000  Level Cleveland Center
Sun 06:23:34 PM 42.0097 -80.3625 261° West 409 471 38,000  Level Cleveland Center
Sun 06:24:34 PM 41.9911 -80.5133 261° West 409 471 38,000  Level Cleveland Center
Sun 06:25:34 PM 41.9703 -80.6614 259° West 409 471 38,000  Level Cleveland Center
Sun 06:26:34 PM 41.9514 -80.8064 260° West 409 471 38,000  Level Cleveland Center
Sun 06:27:34 PM 41.9322 -80.9517 260° West 404 465 38,000  Level Cleveland Center
Sun 06:28:34 PM 41.9131 -81.1022 260° West 404 465 38,000  Level Cleveland Center
Sun 06:29:34 PM 41.8933 -81.2469 260° West 409 471 38,000  Level Cleveland Center
Sun 06:30:34 PM 41.8736 -81.3947 260° West 409 471 38,000  Level Cleveland Center
Sun 06:31:34 PM 41.8517 -81.5419 259° West 409 471 38,000  Level Cleveland Center
Sun 06:32:34 PM 41.8317 -81.6867 260° West 409 471 38,000  Level Cleveland Center
Sun 06:33:34 PM 41.8092 -81.8367 259° West 409 471 38,000  Level Cleveland Center
Sun 06:34:34 PM 41.7931 -81.9700 261° West 409 471 38,000  Level Cleveland Center
Sun 06:35:34 PM 41.7706 -82.1144 258° West 404 465 38,000  Level Cleveland Center
Sun 06:36:34 PM 41.7475 -82.2725 259° West 404 465 38,000  Level Cleveland Center
Sun 06:37:34 PM 41.7264 -82.4194 259° West 410 472 38,000  Level Cleveland Center
Sun 06:38:34 PM 41.7050 -82.5661 259° West 410 472 38,000  Level Cleveland Center
Sun 06:39:34 PM 41.6836 -82.7131 259° West 410 472 38,000  Level Cleveland Center
Sun 06:40:34 PM 41.6539 -82.8536 254° West 410 472 38,000  Level Cleveland Center
Sun 06:41:34 PM 41.6078 -82.9714 242° Southwest 405 466 38,000  Level Cleveland Center
Sun 06:42:34 PM 41.5592 -83.1000 243° Southwest 405 466 38,000  Level Cleveland Center
Sun 06:43:34 PM 41.5017 -83.2422 242° Southwest 400 460 38,000  Level Cleveland Center
Sun 06:44:34 PM 41.4528 -83.3731 244° Southwest 400 460 38,000  Level Cleveland Center
Sun 06:45:34 PM 41.4017 -83.5011 242° Southwest 400 460 38,000  Level Cleveland Center
Sun 06:46:34 PM 41.3522 -83.6317 243° Southwest 400 460 38,000  Level Cleveland Center
Sun 06:47:34 PM 41.3089 -83.7678 247° West 400 460 38,000  Level Cleveland Center
Sun 06:48:34 PM 41.3236 -83.9094 278° West 381 438 38,000  Level Cleveland Center
Sun 06:49:34 PM 41.3381 -84.0542 278° West 381 438 38,000  Level Cleveland Center
Sun 06:50:36 PM 41.3506 -84.1942 277° West 395 455 38,000 -387 Level Chicago Center
Sun 06:51:38 PM 41.3650 -84.3386 278° West 396 456 37,200 -1,742 Descending Chicago Center
Sun 06:52:40 PM 41.3808 -84.4825 278° West 394 453 34,400 -2,855 Descending Chicago Center
Sun 06:53:42 PM 41.3950 -84.6258 278° West 393 452 31,300 -2,468 Descending Chicago Center
Sun 06:54:44 PM 41.4119 -84.7953 278° West 386 444 29,300 -2,371 Descending Chicago Center
Sun 06:55:46 PM 41.4247 -84.9297 277° West 370 426 26,400 -2,565 Descending Chicago Center
Sun 06:56:48 PM 41.4369 -85.0617 277° West 362 417 24,000 -1,161 Descending Chicago Center
Sun 06:57:50 PM 41.4486 -85.1875 277° West 346 398 24,000 -94 Level Chicago Center
Sun 06:58:55 PM 41.4603 -85.3119 277° West 338 389 23,800 -614 Descending Chicago Center
Sun 06:59:57 PM 41.4719 -85.4361 277° West 335 386 22,700 -1,113 Descending Chicago Center
Sun 07:00:59 PM 41.4850 -85.5831 277° West 329 379 21,500 -1,065 Descending Chicago Center
Sun 07:02:01 PM 41.4939 -85.7036 276° West 326 375 20,500 -968 Descending Chicago Center
Sun 07:03:03 PM 41.4981 -85.8247 273° West 325 374 19,500 -968 Descending Chicago Center
Sun 07:04:05 PM 41.5036 -85.9428 274° West 321 369 18,500 -1,210 Descending Chicago Center
Sun 07:05:07 PM 41.5092 -86.0586 274° West 316 364 17,000 -1,694 Descending Chicago Center
Sun 07:06:09 PM 41.5139 -86.1681 273° West 299 344 15,000 -1,935 Descending Chicago Center
Sun 07:07:11 PM 41.5181 -86.2769 273° West 295 339 13,000 -1,872 Descending Chicago Center
Sun 07:08:14 PM 41.5231 -86.4047 273° West 289 333 11,100 -1,392 Descending Chicago Center
Sun 07:09:16 PM 41.5214 -86.5092 269° West 283 326 10,100 -532 Descending Chicago Center
Sun 07:10:18 PM 41.5219 -86.6075 270° West 270 311 10,000  Descending Chicago Center
Sun 07:11:20 PM 41.5194 -86.7044 268° West 264 304 10,100  Climbing Chicago Center
Sun 07:12:22 PM 41.5206 -86.8200 271° West 268 308 10,000 -194 Descending Chicago Center
Sun 07:13:24 PM 41.5194 -86.9144 269° West 257 296 9,700 -878 Descending Chicago Center
Sun 07:14:25 PM 41.5211 -87.0072 271° West 251 289 8,200 -1,512 Descending Chicago Center
Sun 07:15:27 PM 41.5364 -87.0958 283° West 247 284 6,600 -1,211 Descending Chicago Center
Sun 07:16:14 PM 41.5500 -87.1667 284° West 243 280 6,000 -319 Descending Chicago TRACON
Sun 07:17:20 PM 41.5667 -87.2667 283° West 244 281 6,000  Level Chicago TRACON
Sun 07:18:14 PM 41.5667 -87.3500 270° West 244 281 6,000 -82 Level Chicago TRACON
Sun 07:18:33 PM 41.5769 -87.3792 295° West 242 278 5,900 -1,185 Descending Chicago Center
Sun 07:19:35 PM 41.6006 -87.4636 291° West 244 281 4,400 -968 Descending Chicago Center
Sun 07:20:37 PM 41.6256 -87.5478 292° West 245 282 3,900 -194 Descending Chicago Center
Sun 07:21:39 PM 41.6500 -87.6283 292° West 242 278 4,000 -433 Climbing Chicago Center
Sun 07:22:14 PM 41.6667 -87.6833 292° West 187 215 3,200 -1,000 Descending Chicago TRACON
Sun 07:23:09 PM 41.6833 -87.7333 294° West 182 209 2,500 -470 Descending Chicago TRACON
Sun 07:24:09 PM 41.7000 -87.7833 294° West 174 200 2,300 -381 Descending Chicago TRACON
Sun 07:25:15 PM 41.7333 -87.8167 323° Northwest 150 173 1,700 -619 Descending Chicago TRACON
Sun 07:26:15 PM 41.7667 -87.7833 37° Northeast 131 151 1,000 -700 Descending Chicago TRACON
Sun 07:28:00 PM 41.7833 -87.7500 334° Northwest  Level FlightAware Approximate

Login

Don't have an account? Register now (free) for customized features, flight alerts, and more!